Terminal Aerodrome Forecast
Issued by NWS

Home | Current Version | Previous Version | Text Only | Print | Product List | Glossary On
Versions: 1 2 3 4 5 6 7 8 9 10 11 12 13 14
000
FTUS46 KMTR 261100
TAFOAK
TAF
KOAK 261136Z 2612/2718 30005KT P6SM FEW008
     FM262100 30013KT P6SM SKC
     FM270400 30006KT P6SM SKC
     FM270800 31005KT P6SM BKN008=

USA.gov is the U.S. government's official web portal to all federal, state and local government web resources and services.